< < Back
Terminal Aerodrome Forecast


Current Version              Previous Versions:   1  2  3  4  5  6  7  8  9  

Terminal Aerodrome Forecast

505
FTUS42 KMLB 210500
TAFMCO
TAF
KMCO 210531Z 2106/2206 35006KT P6SM BKN250
     FM211500 05013G19KT P6SM FEW035 SCT250
     FM220000 04008KT P6SM SCT040 SCT250=



Latest METAR

458
SAUS70 KWBC 211100 RRF
MTRMCO
METAR KMCO 211053Z 02010KT 10SM FEW042 SCT120 SCT230 13/07 A3023 RMK AO2
SLP237 T01280072


USA.gov is the U.S. government's official web portal to all federal, state and local government web resources and services.